createdAt,value
2019-04-25T00:02:11.538Z,21.20
2019-04-25T00:07:28.294Z,21.10
2019-04-25T00:12:44.583Z,21.00
2019-04-25T00:18:02.336Z,20.90
2019-04-25T00:23:18.810Z,20.80
2019-04-25T00:28:34.569Z,20.70
2019-04-25T00:33:50.324Z,20.60
2019-04-25T00:39:07.814Z,20.50
2019-04-25T00:44:23.833Z,20.40
2019-04-25T00:49:39.492Z,20.30
2019-04-25T00:54:55.622Z,20.30
2019-04-25T01:00:41.487Z,20.20
2019-04-25T01:05:57.564Z,20.10
2019-04-25T01:11:13.523Z,20.00
2019-04-25T01:16:29.422Z,19.90
2019-04-25T01:21:45.766Z,19.80
2019-04-25T01:27:03.365Z,19.80
2019-04-25T01:32:26.546Z,19.70
2019-04-25T01:37:51.422Z,19.60
2019-04-25T01:43:26.605Z,19.50
2019-04-25T01:48:43.353Z,19.50
2019-04-25T01:53:59.275Z,19.40
2019-04-25T01:59:15.186Z,19.30
2019-04-25T02:04:31.966Z,19.20
2019-04-25T02:09:47.963Z,19.20
2019-04-25T02:15:05.921Z,19.10
2019-04-25T02:20:21.834Z,19.00
2019-04-25T02:25:37.715Z,18.90
2019-04-25T02:30:57.347Z,18.90
2019-04-25T02:36:10.544Z,18.80
2019-04-25T02:41:26.432Z,18.70
2019-04-25T02:47:16.151Z,18.70
2019-04-25T02:52:46.200Z,18.60
2019-04-25T02:58:04.841Z,18.50
2019-04-25T03:03:19.124Z,18.50
2019-04-25T03:08:35.546Z,18.40
2019-04-25T03:13:54.341Z,18.30
2019-04-25T03:19:46.084Z,18.30
2019-04-25T03:25:03.969Z,18.20
2019-04-25T03:30:19.538Z,18.10
2019-04-25T03:35:35.295Z,18.10
2019-04-25T03:40:51.018Z,18.00
2019-04-25T03:46:10.331Z,17.90
2019-04-25T03:51:26.095Z,17.90
2019-04-25T03:56:51.919Z,17.80
2019-04-25T04:02:01.222Z,17.80
2019-04-25T04:07:17.818Z,17.70
2019-04-25T04:12:33.965Z,17.60
2019-04-25T04:18:01.025Z,17.60
2019-04-25T04:23:29.056Z,17.50
2019-04-25T04:28:44.951Z,17.50
2019-04-25T04:34:00.732Z,17.40
2019-04-25T04:39:16.813Z,17.30
2019-04-25T04:44:34.368Z,17.30
2019-04-25T04:49:50.312Z,17.20
2019-04-25T04:55:09.669Z,17.20
2019-04-25T05:00:25.298Z,17.10
2019-04-25T05:05:57.100Z,17.10
2019-04-25T05:11:15.438Z,17.00
2019-04-25T05:16:30.622Z,17.00
2019-04-25T05:21:46.095Z,16.90
2019-04-25T05:27:01.925Z,16.90
2019-04-25T05:32:18.196Z,16.80
2019-04-25T05:37:33.805Z,16.80
2019-04-25T05:43:03.805Z,16.80
2019-04-25T05:48:19.793Z,16.70
2019-04-25T05:53:35.106Z,16.70
2019-04-25T05:58:51.316Z,16.70
2019-04-25T06:04:07.001Z,16.60
2019-04-25T06:09:44.546Z,16.60
2019-04-25T06:15:00.521Z,16.60
2019-04-25T06:20:19.969Z,16.50
2019-04-25T06:25:39.691Z,16.50
2019-04-25T06:30:54.111Z,16.50
2019-04-25T06:36:10.998Z,16.50
2019-04-25T06:41:27.078Z,16.50
2019-04-25T06:47:04.428Z,16.50
2019-04-25T06:52:21.523Z,16.50
2019-04-25T06:57:37.469Z,16.50
2019-04-25T07:02:53.416Z,16.50
2019-04-25T07:08:09.075Z,16.50
2019-04-25T07:13:25.718Z,16.50
2019-04-25T07:18:43.596Z,16.60
2019-04-25T07:23:59.555Z,16.60
2019-04-25T07:29:25.770Z,16.60
2019-04-25T07:34:43.786Z,16.70
2019-04-25T07:40:00.550Z,16.70
2019-04-25T07:45:17.767Z,16.80
2019-04-25T07:50:34.327Z,16.90
2019-04-25T07:55:51.036Z,16.90
2019-04-25T08:01:07.748Z,17.00
2019-04-25T08:06:24.249Z,17.10
2019-04-25T08:11:40.025Z,17.10
2019-04-25T08:16:58.387Z,17.20
2019-04-25T08:22:14.349Z,17.30
2019-04-25T08:27:31.046Z,17.30
2019-04-25T08:32:46.818Z,17.40
2019-04-25T08:38:05.831Z,17.50
2019-04-25T08:43:22.054Z,17.50
2019-04-25T08:49:06.093Z,17.60
2019-04-25T08:54:47.184Z,17.70
2019-04-25T09:00:09.975Z,17.80
2019-04-25T09:05:40.492Z,17.80
2019-04-25T09:10:56.125Z,17.90
2019-04-25T09:16:13.513Z,18.00
2019-04-25T09:21:29.524Z,18.00
2019-04-25T09:26:45.393Z,18.10
2019-04-25T09:32:01.699Z,18.10
2019-04-25T09:37:19.510Z,18.20
2019-04-25T09:42:35.753Z,18.20
2019-04-25T09:47:53.369Z,18.30
2019-04-25T09:53:21.801Z,18.30
2019-04-25T09:58:48.304Z,18.40
2019-04-25T10:04:15.107Z,18.50
2019-04-25T10:09:31.018Z,18.50
2019-04-25T10:15:39.464Z,18.60
2019-04-25T10:20:55.411Z,18.70
2019-04-25T10:26:13.254Z,18.80
2019-04-25T10:31:29.289Z,18.80
2019-04-25T10:36:45.481Z,18.80
2019-04-25T10:42:03.483Z,18.90
2019-04-25T10:47:18.835Z,19.00
2019-04-25T10:52:34.758Z,19.00
2019-04-25T10:57:51.076Z,19.10
2019-04-25T11:03:33.414Z,19.20
2019-04-25T11:08:49.612Z,19.30
2019-04-25T11:14:13.546Z,19.40
2019-04-25T11:19:34.055Z,19.50
2019-04-25T11:24:52.979Z,19.50
2019-04-25T11:30:11.492Z,19.70
2019-04-25T11:35:28.436Z,19.80
2019-04-25T11:40:59.302Z,19.90
2019-04-25T11:46:15.551Z,20.00
2019-04-25T11:51:31.867Z,20.20
2019-04-25T11:56:47.562Z,20.30
2019-04-25T12:02:05.917Z,20.40
2019-04-25T12:07:21.541Z,20.60
2019-04-25T12:12:37.391Z,20.80
2019-04-25T12:17:54.738Z,20.90
2019-04-25T12:23:10.780Z,21.10
2019-04-25T12:28:26.668Z,21.20
2019-04-25T12:33:43.424Z,21.40
2019-04-25T12:38:59.513Z,21.60
2019-04-25T12:44:34.025Z,21.80
2019-04-25T12:49:51.257Z,22.00
2019-04-25T12:55:07.800Z,22.20
2019-04-25T13:00:27.136Z,22.40
2019-04-25T13:05:44.224Z,22.60
2019-04-25T13:11:07.818Z,22.80
2019-04-25T13:16:19.189Z,23.00
2019-04-25T13:21:35.132Z,23.20
2019-04-25T13:27:00.611Z,23.30
2019-04-25T13:32:37.884Z,23.50
2019-04-25T13:37:54.400Z,23.70
2019-04-25T13:43:10.408Z,23.90
2019-04-25T13:48:29.458Z,24.10
2019-04-25T13:53:45.187Z,24.30
2019-04-25T13:59:01.903Z,24.50
2019-04-25T14:04:17.833Z,24.60
2019-04-25T14:09:34.752Z,24.80
2019-04-25T14:14:50.770Z,24.90
2019-04-25T14:20:19.123Z,25.10
2019-04-25T14:25:35.372Z,25.20
2019-04-25T14:30:51.475Z,25.40
2019-04-25T14:36:07.034Z,25.60
2019-04-25T14:41:23.767Z,25.80
2019-04-25T14:46:40.089Z,26.00
2019-04-25T14:51:55.572Z,26.40
2019-04-25T14:57:24.040Z,26.90
2019-04-25T15:02:40.768Z,27.50
2019-04-25T15:07:56.667Z,27.90
2019-04-25T15:13:12.812Z,28.20
2019-04-25T15:18:28.828Z,28.50
2019-04-25T15:23:44.739Z,28.60
2019-04-25T15:29:00.111Z,28.60
2019-04-25T15:34:16.136Z,28.60
2019-04-25T15:39:50.086Z,28.50
2019-04-25T15:45:23.814Z,28.20
2019-04-25T15:50:41.052Z,28.10
2019-04-25T15:55:57.390Z,27.90
2019-04-25T16:01:13.312Z,28.10
2019-04-25T16:06:29.815Z,28.40
2019-04-25T16:11:45.604Z,28.80
2019-04-25T16:17:01.415Z,29.30
2019-04-25T16:22:17.183Z,29.70
2019-04-25T16:27:32.773Z,30.00
2019-04-25T16:32:48.378Z,30.30
2019-04-25T16:38:05.385Z,30.60
2019-04-25T16:43:26.077Z,30.80
2019-04-25T16:48:41.644Z,30.90
2019-04-25T16:53:57.700Z,31.00
2019-04-25T16:59:14.999Z,31.10
2019-04-25T17:04:31.196Z,31.20
2019-04-25T17:09:47.244Z,31.20
2019-04-25T17:15:21.773Z,31.30
2019-04-25T17:20:42.188Z,31.30
2019-04-25T17:25:58.281Z,31.30
2019-04-25T17:31:28.293Z,31.30
2019-04-25T17:37:01.680Z,31.20
2019-04-25T17:42:17.700Z,31.20
2019-04-25T17:47:34.489Z,31.20
2019-04-25T17:52:50.875Z,31.10
2019-04-25T17:58:06.703Z,31.00
2019-04-25T18:03:22.898Z,31.00
2019-04-25T18:08:39.572Z,30.90
2019-04-25T18:13:55.620Z,30.90
2019-04-25T18:19:36.531Z,30.90
2019-04-25T18:25:14.244Z,30.80
2019-04-25T18:30:30.845Z,30.70
2019-04-25T18:35:49.162Z,30.60
2019-04-25T18:41:13.823Z,30.50
2019-04-25T18:46:34.196Z,30.40
2019-04-25T18:51:57.599Z,30.40
2019-04-25T18:57:34.412Z,30.30
2019-04-25T19:03:02.361Z,30.20
2019-04-25T19:08:17.832Z,30.10
2019-04-25T19:13:35.470Z,30.00
2019-04-25T19:18:53.664Z,29.90
2019-04-25T19:24:09.864Z,29.80
2019-04-25T19:29:25.730Z,29.80
2019-04-25T19:34:42.540Z,29.70
2019-04-25T19:40:12.898Z,29.60
2019-04-25T19:45:33.255Z,29.50
2019-04-25T19:50:48.850Z,29.30
2019-04-25T19:56:04.791Z,29.20
2019-04-25T20:01:20.665Z,29.10
2019-04-25T20:06:53.961Z,29.00
2019-04-25T20:12:10.375Z,28.90
2019-04-25T20:17:25.895Z,28.80
2019-04-25T20:22:41.652Z,28.70
2019-04-25T20:27:57.662Z,28.50
2019-04-25T20:33:13.335Z,28.40
2019-04-25T20:38:29.230Z,28.30
2019-04-25T20:43:45.210Z,28.20
2019-04-25T20:49:01.359Z,28.10
2019-04-25T20:54:17.282Z,28.00
2019-04-25T20:59:33.659Z,27.90
2019-04-25T21:04:50.078Z,27.80
2019-04-25T21:10:06.583Z,27.70
2019-04-25T21:15:42.445Z,27.50
2019-04-25T21:20:59.198Z,27.50
2019-04-25T21:26:15.523Z,27.30
2019-04-25T21:31:31.427Z,27.20
2019-04-25T21:36:48.377Z,27.10
2019-04-25T21:42:23.353Z,27.00
2019-04-25T21:47:39.313Z,26.90
2019-04-25T21:52:55.385Z,26.80
2019-04-25T21:58:12.992Z,26.60
2019-04-25T22:03:29.227Z,26.50
2019-04-25T22:08:45.436Z,26.40
2019-04-25T22:14:03.448Z,26.30
2019-04-25T22:19:22.343Z,26.20
2019-04-25T22:24:38.569Z,26.10
2019-04-25T22:30:01.408Z,26.00
2019-04-25T22:35:24.390Z,25.90
2019-04-25T22:40:40.485Z,25.80
2019-04-25T22:45:56.531Z,25.60
2019-04-25T22:51:12.571Z,25.60
2019-04-25T22:56:30.926Z,25.40
2019-04-25T23:01:54.875Z,25.30
2019-04-25T23:07:12.311Z,25.20
2019-04-25T23:12:28.074Z,25.10
2019-04-25T23:17:43.977Z,25.00
2019-04-25T23:23:01.012Z,24.90
2019-04-25T23:28:20.464Z,24.80
2019-04-25T23:33:36.550Z,24.70
2019-04-25T23:38:52.721Z,24.60
2019-04-25T23:44:09.092Z,24.50
2019-04-25T23:49:25.980Z,24.40
2019-04-25T23:54:41.818Z,24.30
2019-04-25T23:59:57.534Z,24.20
